Time;durP1;ratioP1;P1;durP2;ratioP2;P2;SDS_P1;SDS_P2;PMS_P1;PMS_P2;Temp;Humidity;BMP_temperature;BMP_pressure;BME280_temperature;BME280_humidity;BME280_pressure;Samples;Min_cycle;Max_cycle;Signal;HPM_P1;HPM_P2
2022/03/25 00:00:20;;;;;;;8.30;4.87;;;9.20;33.70;;;;;;2275020;55;21011;-65
2022/03/25 00:02:46;;;;;;;8.00;4.62;;;9.20;33.80;;;;;;2256357;56;21790;-65
2022/03/25 00:05:13;;;;;;;7.32;4.43;;;9.10;33.70;;;;;;2389535;55;20957;-64
2022/03/25 00:07:39;;;;;;;8.63;4.85;;;9.10;33.80;;;;;;2274390;55;21002;-65
2022/03/25 00:10:07;;;;;;;8.73;5.60;;;9.00;33.80;;;;;;2289859;56;20955;-64
2022/03/25 00:12:33;;;;;;;9.15;5.30;;;9.00;34.00;;;;;;2287662;56;20954;-64
2022/03/25 00:14:59;;;;;;;8.25;4.72;;;9.00;34.10;;;;;;2351212;55;20939;-64
2022/03/25 00:17:27;;;;;;;7.40;4.45;;;9.00;34.20;;;;;;2290245;56;21391;-64
2022/03/25 00:19:54;;;;;;;9.75;5.18;;;8.90;34.10;;;;;;2524805;55;20971;-64
2022/03/25 00:22:21;;;;;;;8.88;4.62;;;8.90;34.20;;;;;;2289793;55;21018;-64
2022/03/25 00:24:48;;;;;;;11.70;5.62;;;8.80;34.20;;;;;;2290107;56;20966;-63
2022/03/25 00:27:16;;;;;;;8.95;4.93;;;8.80;34.30;;;;;;2290209;55;21006;-64
2022/03/25 00:29:42;;;;;;;8.00;4.68;;;8.80;34.30;;;;;;2416207;55;20937;-65
2022/03/25 00:32:09;;;;;;;7.87;4.43;;;8.60;34.20;;;;;;2290048;56;21428;-64
2022/03/25 00:34:36;;;;;;;8.10;4.05;;;8.70;34.30;;;;;;2273832;55;20963;-63
2022/03/25 00:37:02;;;;;;;8.02;4.75;;;8.70;34.30;;;;;;2284211;56;21451;-65
2022/03/25 00:39:30;;;;;;;8.35;4.78;;;8.60;34.40;;;;;;2339332;55;21017;-63
2022/03/25 00:41:56;;;;;;;6.90;3.85;;;8.60;34.50;;;;;;2269831;56;21038;-65
2022/03/25 00:44:24;;;;;;;7.53;4.40;;;8.50;34.40;;;;;;2288703;55;21460;-65
2022/03/25 00:46:51;;;;;;;8.70;4.90;;;8.50;34.50;;;;;;2290945;55;21128;-64
2022/03/25 00:49:19;;;;;;;8.73;4.57;;;8.40;34.60;;;;;;2267470;56;22201;-64
2022/03/25 00:51:47;;;;;;;7.87;4.57;;;8.40;34.70;;;;;;2284508;56;21035;-65
2022/03/25 00:54:14;;;;;;;7.37;4.15;;;8.40;34.80;;;;;;2493931;55;20999;-65
2022/03/25 00:56:41;;;;;;;6.97;3.92;;;8.30;34.80;;;;;;2265895;56;20906;-64
2022/03/25 01:02:34;;;;;;;6.28;3.65;;;8.30;35.20;;;;;;2523618;55;21017;-64
2022/03/25 01:05:01;;;;;;;7.87;4.70;;;8.30;34.80;;;;;;2437609;55;20958;-65
2022/03/25 01:07:30;;;;;;;8.77;4.53;;;8.20;34.90;;;;;;2290257;55;20998;-64
2022/03/25 01:09:57;;;;;;;7.12;4.25;;;8.20;35.10;;;;;;2290114;56;21853;-64
2022/03/25 01:12:23;;;;;;;7.05;4.25;;;8.10;35.00;;;;;;2283718;55;21031;-64
2022/03/25 01:14:51;;;;;;;8.32;4.75;;;8.10;35.00;;;;;;2268559;56;20983;-64
2022/03/25 01:17:18;;;;;;;6.32;3.42;;;8.10;35.10;;;;;;2273105;55;21065;-63
2022/03/25 01:19:44;;;;;;;9.50;4.05;;;8.00;35.10;;;;;;2289859;56;20961;-63
2022/03/25 01:22:11;;;;;;;7.53;4.22;;;8.00;35.10;;;;;;2270967;56;21023;-63
2022/03/25 01:24:37;;;;;;;7.22;3.95;;;8.00;35.30;;;;;;2265976;56;21836;-64
2022/03/25 01:27:04;;;;;;;7.65;4.40;;;7.90;35.30;;;;;;2524320;55;21037;-64
2022/03/25 01:29:33;;;;;;;8.85;5.20;;;7.90;35.40;;;;;;2281492;55;20951;-63
2022/03/25 01:35:31;;;;;;;7.05;4.30;;;7.80;36.00;;;;;;2289576;55;21042;-64
2022/03/25 01:37:58;;;;;;;7.50;4.22;;;7.80;35.50;;;;;;2290391;55;21022;-64
2022/03/25 01:40:24;;;;;;;5.87;3.95;;;7.80;35.60;;;;;;2289990;55;20970;-64
2022/03/25 01:42:50;;;;;;;8.00;4.45;;;7.70;35.60;;;;;;2304772;55;20923;-65
2022/03/25 01:45:34;;;;;;;7.93;4.82;;;7.70;35.70;;;;;;2269403;56;21059;-64
2022/03/25 01:48:03;;;;;;;6.75;3.85;;;7.60;36.00;;;;;;2274962;56;20957;-64
2022/03/25 01:50:30;;;;;;;6.62;3.70;;;7.70;35.90;;;;;;2454434;55;21125;-64
2022/03/25 01:53:16;;;;;;;7.45;4.35;;;7.60;35.90;;;;;;2283093;56;21578;-64
2022/03/25 01:55:50;;;;;;;8.32;4.35;;;7.60;36.30;;;;;;2267425;56;20957;-64
2022/03/25 02:01:44;;;;;;;7.15;3.58;;;7.50;36.30;;;;;;2328232;55;21006;-63
2022/03/25 02:04:11;;;;;;;8.10;4.37;;;7.50;36.50;;;;;;2290774;55;20911;-64
2022/03/25 02:06:38;;;;;;;7.15;4.45;;;7.50;35.90;;;;;;2281408;56;20979;-63
2022/03/25 02:09:04;;;;;;;7.32;4.10;;;7.40;36.00;;;;;;2275760;56;21061;-65
2022/03/25 02:11:31;;;;;;;8.13;4.40;;;7.40;36.10;;;;;;2504472;55;20972;-64
2022/03/25 02:14:18;;;;;;;7.22;4.22;;;7.40;36.10;;;;;;2273330;55;21039;-64
2022/03/25 02:16:46;;;;;;;7.80;4.03;;;7.30;36.50;;;;;;2261744;56;21004;-64
2022/03/25 02:19:18;;;;;;;7.50;4.20;;;7.30;36.20;;;;;;2270570;55;20948;-64
2022/03/25 02:22:03;;;;;;;7.90;4.60;;;7.30;36.30;;;;;;2283299;56;21907;-63
2022/03/25 02:24:29;;;;;;;7.15;3.72;;;7.30;36.80;;;;;;2290020;56;21001;-64
2022/03/25 02:26:56;;;;;;;7.10;4.00;;;7.20;36.30;;;;;;2267995;56;20958;-63
2022/03/25 02:29:23;;;;;;;7.40;4.10;;;7.20;36.40;;;;;;2290004;56;20965;-63
2022/03/25 02:31:58;;;;;;;5.93;3.37;;;7.20;36.50;;;;;;2258834;55;21919;-63
2022/03/25 02:34:26;;;;;;;6.75;3.67;;;7.10;36.60;;;;;;2225378;57;21050;-64
2022/03/25 02:37:19;;;;;;;6.75;3.72;;;7.10;36.40;;;;;;2379769;55;21013;-64
2022/03/25 02:39:46;;;;;;;;;;;7.10;36.80;;;;;;2260507;56;21056;-63
2022/03/25 02:42:13;;;;;;;6.05;3.20;;;7.10;37.00;;;;;;2254981;56;20102;-63
2022/03/25 02:44:39;;;;;;;5.72;2.95;;;7.00;36.20;;;;;;2255215;56;20961;-63
2022/03/25 02:47:34;;;;;;;6.32;3.67;;;7.00;36.30;;;;;;2258150;56;20972;-64
2022/03/25 02:50:01;;;;;;;6.57;3.40;;;7.00;37.00;;;;;;2262067;56;21061;-64
2022/03/25 02:52:27;;;;;;;6.60;3.72;;;7.00;36.60;;;;;;2236148;56;20986;-64
2022/03/25 02:54:54;;;;;;;6.90;4.03;;;6.90;36.60;;;;;;2251620;56;21017;-63
2022/03/25 02:57:21;;;;;;;7.22;4.47;;;6.90;36.80;;;;;;2265107;56;20959;-63
2022/03/25 02:59:47;;;;;;;8.43;4.57;;;6.90;36.80;;;;;;2331445;55;21072;-65
2022/03/25 03:02:14;;;;;;;7.32;4.03;;;6.90;36.90;;;;;;2259581;56;21048;-64
2022/03/25 03:04:41;;;;;;;7.93;3.78;;;6.90;36.90;;;;;;2257136;56;21073;-64
2022/03/25 03:07:08;;;;;;;7.12;4.20;;;6.80;36.80;;;;;;2259222;56;21059;-63
2022/03/25 03:09:56;;;;;;;9.13;4.70;;;6.80;36.80;;;;;;2257680;55;20992;-64
2022/03/25 03:12:24;;;;;;;8.13;3.75;;;6.80;37.40;;;;;;2326676;55;20997;-64
2022/03/25 03:15:07;;;;;;;7.03;4.20;;;6.70;36.90;;;;;;2259866;57;21000;-64
2022/03/25 03:17:33;;;;;;;8.05;3.92;;;6.70;37.40;;;;;;2249852;56;20981;-63
2022/03/25 03:20:00;;;;;;;6.65;4.10;;;6.70;37.10;;;;;;2263729;56;20968;-64
2022/03/25 03:26:06;;;;;;;7.47;4.18;;;6.60;37.50;;;;;;2325946;55;21513;-63
2022/03/25 03:28:34;;;;;;;7.20;4.03;;;6.60;37.00;;;;;;2449939;55;20968;-64
2022/03/25 03:31:01;;;;;;;6.40;3.85;;;6.60;37.20;;;;;;2259267;56;21433;-63
2022/03/25 03:33:31;;;;;;;6.53;3.90;;;6.60;37.20;;;;;;2259014;56;21604;-64
2022/03/25 03:35:57;;;;;;;6.35;3.70;;;6.50;37.30;;;;;;2258469;56;20981;-63
2022/03/25 03:38:24;;;;;;;7.00;3.90;;;6.50;37.40;;;;;;2261676;55;21013;-63
2022/03/25 03:40:50;;;;;;;8.57;4.50;;;6.50;37.40;;;;;;2252921;56;21008;-64
2022/03/25 03:43:17;;;;;;;7.70;4.60;;;6.50;37.50;;;;;;2259385;56;20948;-64
2022/03/25 03:45:43;;;;;;;6.82;4.32;;;6.50;37.60;;;;;;2263435;55;20984;-63
2022/03/25 03:48:11;;;;;;;9.50;5.03;;;6.40;37.60;;;;;;2247906;57;21006;-65
2022/03/25 03:50:43;;;;;;;7.20;4.18;;;6.40;38.30;;;;;;2260162;57;21747;-63
2022/03/25 03:53:22;;;;;;;8.48;4.18;;;6.40;37.90;;;;;;2252343;56;21073;-62
2022/03/25 03:55:48;;;;;;;8.00;4.37;;;6.40;38.00;;;;;;2327641;55;20954;-64
2022/03/25 04:02:01;;;;;;;6.93;4.00;;;6.30;38.10;;;;;;2273499;55;21012;-63
2022/03/25 04:04:27;;;;;;;7.43;3.85;;;6.30;37.90;;;;;;2255923;57;21030;-64
2022/03/25 04:06:56;;;;;;;8.75;4.53;;;6.30;37.80;;;;;;2237925;56;21143;-64
2022/03/25 04:09:25;;;;;;;7.47;3.97;;;6.30;37.90;;;;;;2249908;56;20960;-62
2022/03/25 04:11:51;;;;;;;6.50;3.58;;;6.20;37.80;;;;;;2235011;57;21006;-64
2022/03/25 04:14:17;;;;;;;9.23;4.80;;;6.20;37.80;;;;;;2259078;56;20917;-64
2022/03/25 04:16:44;;;;;;;8.20;4.70;;;6.20;37.90;;;;;;2247643;56;20993;-64
2022/03/25 04:19:10;;;;;;;9.27;5.43;;;6.10;38.00;;;;;;2333520;56;21069;-64
2022/03/25 04:22:07;;;;;;;11.93;5.90;;;6.10;38.00;;;;;;2234095;57;22034;-63
2022/03/25 04:24:33;;;;;;;8.75;4.68;;;6.10;38.40;;;;;;2321605;55;21821;-63
2022/03/25 04:27:00;;;;;;;8.02;4.90;;;6.10;38.10;;;;;;2249008;56;20977;-65
2022/03/25 04:29:26;;;;;;;7.57;3.90;;;6.10;38.10;;;;;;2456208;55;20957;-64
2022/03/25 04:31:52;;;;;;;9.10;4.32;;;6.00;38.10;;;;;;2245000;56;20945;-63
2022/03/25 04:34:19;;;;;;;7.07;4.15;;;6.00;38.10;;;;;;2238332;56;21471;-64
2022/03/25 04:36:45;;;;;;;10.27;4.55;;;5.90;38.10;;;;;;2255433;55;21041;-63
2022/03/25 04:39:20;;;;;;;8.27;4.55;;;5.90;38.20;;;;;;2251109;55;21024;-63
2022/03/25 04:41:46;;;;;;;7.35;4.10;;;5.90;38.20;;;;;;2257736;55;21112;-63
2022/03/25 04:44:13;;;;;;;7.85;4.32;;;5.90;38.20;;;;;;2259126;56;20932;-63
2022/03/25 04:46:40;;;;;;;7.62;4.65;;;5.90;38.30;;;;;;2258336;56;21035;-69
2022/03/25 04:52:47;;;;;;;8.13;4.20;;;5.80;38.80;;;;;;2251739;56;20993;-64
2022/03/25 04:55:15;;;;;;;9.70;4.70;;;5.80;38.30;;;;;;2251213;56;21013;-63
2022/03/25 04:57:42;;;;;;;8.82;4.40;;;5.80;38.40;;;;;;2257179;56;21022;-64
2022/03/25 05:00:09;;;;;;;6.75;3.95;;;5.70;38.50;;;;;;2221727;56;21443;-63
2022/03/25 05:02:35;;;;;;;7.85;3.90;;;5.70;38.60;;;;;;2255915;56;21032;-64
2022/03/25 05:05:02;;;;;;;10.30;5.05;;;5.70;38.50;;;;;;2268897;56;21447;-64
2022/03/25 05:08:05;;;;;;;12.10;5.20;;;5.70;38.60;;;;;;2233538;56;20994;-62
2022/03/25 05:10:35;;;;;;;9.45;4.97;;;5.70;39.20;;;;;;2257233;56;21505;-63
2022/03/25 05:13:09;;;;;;;9.65;4.72;;;5.70;38.90;;;;;;2259125;56;21195;-64
2022/03/25 05:15:37;;;;;;;6.40;3.62;;;5.60;38.70;;;;;;2258343;56;21483;-64
2022/03/25 05:18:04;;;;;;;7.35;4.20;;;5.60;38.80;;;;;;2260653;56;20993;-63
2022/03/25 05:21:01;;;;;;;7.87;4.40;;;5.60;38.80;;;;;;2246446;55;20979;-64
2022/03/25 05:23:28;;;;;;;12.57;5.30;;;5.60;39.30;;;;;;2257054;56;20981;-64
2022/03/25 05:25:54;;;;;;;9.32;5.45;;;5.60;39.00;;;;;;2257828;56;21459;-63
2022/03/25 05:28:30;;;;;;;9.50;5.40;;;5.60;39.20;;;;;;2251966;56;20976;-64
2022/03/25 05:30:57;;;;;;;8.55;5.07;;;5.60;39.50;;;;;;2258696;56;20977;-64
2022/03/25 05:33:24;;;;;;;8.98;4.90;;;5.60;39.20;;;;;;2273349;55;21003;-63
2022/03/25 05:35:51;;;;;;;9.85;4.68;;;5.50;39.20;;;;;;2252079;56;21386;-63
2022/03/25 05:38:17;;;;;;;8.50;4.85;;;5.50;39.20;;;;;;2257629;56;21565;-64
2022/03/25 05:40:43;;;;;;;8.15;4.45;;;5.50;39.30;;;;;;2255474;55;20947;-63
2022/03/25 05:43:10;;;;;;;8.73;4.82;;;5.50;39.50;;;;;;2251780;56;20949;-64
2022/03/25 05:45:37;;;;;;;11.23;5.10;;;5.50;39.50;;;;;;2265057;55;20975;-64
2022/03/25 05:48:03;;;;;;;10.52;5.32;;;5.50;39.50;;;;;;2232007;56;20946;-64
2022/03/25 05:50:30;;;;;;;9.52;5.20;;;5.50;39.50;;;;;;2259827;56;20945;-64
2022/03/25 05:53:41;;;;;;;8.93;5.20;;;5.50;39.50;;;;;;2349087;55;21804;-63
2022/03/25 05:56:07;;;;;;;11.77;5.62;;;5.60;40.10;;;;;;2289859;56;21045;-64
2022/03/25 05:58:37;;;;;;;11.07;5.78;;;5.60;39.70;;;;;;2289609;55;20970;-64
2022/03/25 06:01:05;;;;;;;9.05;5.45;;;5.60;39.90;;;;;;2279826;56;20960;-64
2022/03/25 06:03:32;;;;;;;9.38;5.15;;;5.60;39.90;;;;;;2262617;55;21101;-62
2022/03/25 06:06:00;;;;;;;9.43;4.87;;;5.60;39.90;;;;;;2289828;55;21587;-63
2022/03/25 06:08:27;;;;;;;10.13;5.65;;;5.60;39.90;;;;;;2289328;56;20954;-63
2022/03/25 06:10:55;;;;;;;9.02;5.15;;;5.60;40.00;;;;;;2289746;56;20997;-63
2022/03/25 06:13:22;;;;;;;8.13;4.43;;;5.60;40.10;;;;;;2289883;55;20986;-64
2022/03/25 06:15:48;;;;;;;8.57;4.87;;;5.60;40.10;;;;;;2289960;56;21548;-63
2022/03/25 06:18:16;;;;;;;9.88;4.55;;;5.70;40.30;;;;;;2290364;56;21514;-65
2022/03/25 06:20:44;;;;;;;10.05;5.37;;;5.70;40.30;;;;;;2291409;55;21482;-64
2022/03/25 06:23:10;;;;;;;9.95;5.95;;;5.70;40.40;;;;;;2292097;56;20937;-63
2022/03/25 06:25:37;;;;;;;9.00;5.10;;;5.80;40.60;;;;;;2246529;56;21843;-63
2022/03/25 06:28:07;;;;;;;8.95;5.25;;;5.80;40.60;;;;;;2286590;56;21715;-63
2022/03/25 06:30:37;;;;;;;10.45;5.62;;;5.90;40.80;;;;;;2233753;57;20985;-64
2022/03/25 06:33:09;;;;;;;8.70;4.87;;;5.90;41.00;;;;;;2255643;56;21020;-64
2022/03/25 06:39:03;;;;;;;7.80;4.50;;;6.00;41.40;;;;;;2260389;55;20990;-63
2022/03/25 06:41:30;;;;;;;9.52;4.82;;;6.10;40.90;;;;;;2303596;55;21033;-64
2022/03/25 06:43:57;;;;;;;11.40;5.32;;;6.20;41.10;;;;;;2258896;56;21131;-64
2022/03/25 06:46:23;;;;;;;8.80;5.18;;;6.30;41.50;;;;;;2259550;56;21116;-63
2022/03/25 06:52:18;;;;;;;11.30;5.95;;;6.50;42.20;;;;;;2280262;55;21029;-64
2022/03/25 06:54:46;;;;;;;9.95;5.87;;;6.60;41.70;;;;;;2263640;55;20977;-63
2022/03/25 06:57:13;;;;;;;10.10;6.07;;;6.70;41.80;;;;;;2258801;56;20964;-64
2022/03/25 06:59:41;;;;;;;10.73;6.30;;;6.80;41.90;;;;;;2259047;56;21019;-64
2022/03/25 07:02:10;;;;;;;13.25;6.97;;;6.90;42.00;;;;;;2239981;56;21059;-63
2022/03/25 07:08:05;;;;;;;12.25;6.03;;;7.10;42.50;;;;;;2257800;56;20949;-65
2022/03/25 07:11:11;;;;;;;11.07;6.80;;;7.20;42.10;;;;;;2262455;56;21053;-64
2022/03/25 07:13:38;;;;;;;12.20;5.78;;;7.40;42.80;;;;;;2240447;56;21099;-63
2022/03/25 07:16:05;;;;;;;8.52;5.40;;;7.50;42.30;;;;;;2251370;57;21826;-65
2022/03/25 07:18:32;;;;;;;13.70;6.72;;;7.60;42.40;;;;;;2410580;55;20948;-63
2022/03/25 07:21:00;;;;;;;11.68;6.53;;;7.70;42.40;;;;;;2250926;56;20960;-65
2022/03/25 07:23:28;;;;;;;12.10;7.07;;;7.80;42.50;;;;;;2254724;56;20998;-63
2022/03/25 07:25:57;;;;;;;12.15;7.12;;;8.00;42.70;;;;;;2264942;56;20980;-65
2022/03/25 07:28:26;;;;;;;12.10;7.30;;;8.10;42.70;;;;;;2247593;56;21000;-66
2022/03/25 07:30:55;;;;;;;15.98;7.97;;;8.30;42.70;;;;;;2245068;56;20983;-65
2022/03/25 07:36:52;;;;;;;10.05;5.55;;;8.60;43.10;;;;;;2494106;55;21482;-66
2022/03/25 07:39:20;;;;;;;10.65;6.47;;;8.80;42.70;;;;;;2259281;56;21020;-64
2022/03/25 07:41:55;;;;;;;9.73;6.07;;;8.90;42.60;;;;;;2270444;55;20988;-66
2022/03/25 07:44:28;;;;;;;12.90;6.82;;;9.00;42.80;;;;;;2249023;56;21138;-65
2022/03/25 07:47:00;;;;;;;12.40;7.75;;;9.20;42.90;;;;;;2259729;56;20936;-64
2022/03/25 07:49:43;;;;;;;10.05;6.32;;;9.30;42.70;;;;;;2405967;55;20997;-65
2022/03/25 07:52:10;;;;;;;10.88;6.32;;;9.50;43.10;;;;;;2221861;57;21045;-66
2022/03/25 07:54:38;;;;;;;11.93;6.97;;;9.60;42.80;;;;;;2254073;56;21959;-65
2022/03/25 07:57:06;;;;;;;9.45;6.25;;;9.80;42.90;;;;;;2234066;56;20983;-65
2022/03/25 07:59:34;;;;;;;10.27;6.32;;;9.90;43.00;;;;;;2255574;56;21073;-65
2022/03/25 08:02:01;;;;;;;11.60;7.62;;;10.10;42.30;;;;;;2285837;55;21091;-64
2022/03/25 08:04:28;;;;;;;15.68;8.32;;;10.30;42.60;;;;;;2326111;55;21069;-64
2022/03/25 08:06:56;;;;;;;14.60;8.77;;;10.50;42.70;;;;;;2260945;56;21766;-64
2022/03/25 08:09:23;;;;;;;15.88;9.60;;;10.80;43.00;;;;;;2245444;56;20994;-64
2022/03/25 08:11:50;;;;;;;12.90;8.30;;;11.10;43.40;;;;;;2246504;56;20985;-66
2022/03/25 08:14:19;;;;;;;11.63;7.82;;;11.50;43.70;;;;;;2257627;56;21489;-66
2022/03/25 08:17:29;;;;;;;10.32;6.62;;;11.90;43.90;;;;;;2244448;57;20989;-66
2022/03/25 08:19:59;;;;;;;10.68;6.65;;;12.40;44.20;;;;;;2234142;56;21455;-64
2022/03/25 08:22:31;;;;;;;10.15;6.65;;;12.90;44.50;;;;;;2311318;55;21039;-65
2022/03/25 08:27:51;;;;;;;11.60;6.80;;;14.00;45.00;;;;;;2244689;56;21023;-65
2022/03/25 08:30:21;;;;;;;9.82;6.78;;;14.50;45.00;;;;;;2234252;56;20980;-66
2022/03/25 08:32:50;;;;;;;11.98;6.97;;;15.00;44.60;;;;;;2244253;56;21088;-65
2022/03/25 08:35:17;;;;;;;11.27;7.22;;;15.40;43.90;;;;;;2245611;55;21454;-65
2022/03/25 08:38:31;;;;;;;9.95;7.40;;;15.80;43.50;;;;;;2253217;56;21075;-65
2022/03/25 08:40:59;;;;;;;9.73;6.05;;;16.20;42.70;;;;;;2243218;57;20984;-66
2022/03/25 08:43:41;;;;;;;8.60;5.65;;;16.60;42.70;;;;;;2251152;56;21056;-66
2022/03/25 08:46:09;;;;;;;11.43;7.35;;;17.00;42.70;;;;;;2256960;55;21104;-65
2022/03/25 08:48:36;;;;;;;10.52;7.25;;;17.40;42.40;;;;;;2431851;55;20993;-65
2022/03/25 08:51:15;;;;;;;10.73;7.25;;;17.70;42.10;;;;;;2256293;56;21029;-66
2022/03/25 08:53:51;;;;;;;11.68;7.50;;;18.00;41.60;;;;;;2258040;56;21473;-66
2022/03/25 08:56:24;;;;;;;10.18;6.60;;;18.30;41.20;;;;;;2254976;56;21004;-67
2022/03/25 08:58:54;;;;;;;;;;;18.60;40.70;;;;;;2370185;55;21013;-67
2022/03/25 09:01:32;;;;;;;9.73;5.85;;;18.90;40.70;;;;;;2231748;56;20448;-65
2022/03/25 09:07:29;;;;;;;9.90;6.55;;;19.40;40.20;;;;;;2307650;55;21439;-66
2022/03/25 09:09:56;;;;;;;9.98;6.30;;;19.70;40.60;;;;;;2259965;56;21040;-66
2022/03/25 09:12:25;;;;;;;10.50;6.50;;;20.00;40.20;;;;;;2240358;55;21464;-65
2022/03/25 09:14:54;;;;;;;9.75;6.87;;;20.30;40.00;;;;;;2254707;56;21027;-66
2022/03/25 09:17:20;;;;;;;12.20;6.72;;;20.60;39.70;;;;;;2259841;56;21040;-66
2022/03/25 09:19:58;;;;;;;9.88;7.22;;;21.00;39.50;;;;;;2254509;57;21080;-68
2022/03/25 09:23:13;;;;;;;10.45;6.87;;;21.30;39.20;;;;;;2334995;55;20930;-66
2022/03/25 09:25:52;;;;;;;11.65;7.05;;;21.70;38.40;;;;;;2273418;56;20985;-66
2022/03/25 09:28:25;;;;;;;9.70;6.80;;;22.00;38.00;;;;;;2317666;55;21639;-65
2022/03/25 09:30:53;;;;;;;9.95;6.95;;;22.20;37.50;;;;;;2242395;56;20952;-66
2022/03/25 09:33:19;;;;;;;11.75;8.10;;;22.40;37.20;;;;;;2234764;56;21751;-66
2022/03/25 09:35:46;;;;;;;12.37;7.93;;;22.50;36.50;;;;;;2249761;57;21570;-67
2022/03/25 09:38:13;;;;;;;12.73;8.00;;;22.60;36.10;;;;;;2260058;56;20999;-66
2022/03/25 09:40:42;;;;;;;12.73;8.27;;;22.60;35.60;;;;;;2260495;56;20997;-66
2022/03/25 09:43:12;;;;;;;16.98;9.80;;;22.60;35.20;;;;;;2239555;57;20960;-66
2022/03/25 09:45:41;;;;;;;15.60;9.75;;;22.60;34.50;;;;;;2233909;56;20977;-66
2022/03/25 09:48:08;;;;;;;16.92;10.20;;;22.60;34.30;;;;;;2262717;56;20968;-67
2022/03/25 09:50:37;;;;;;;17.23;10.57;;;22.60;34.30;;;;;;2258073;56;21009;-68
2022/03/25 09:53:03;;;;;;;16.58;10.52;;;22.60;34.60;;;;;;2260011;56;20981;-68
2022/03/25 09:55:46;;;;;;;14.55;9.23;;;22.60;33.60;;;;;;2250389;56;20965;-66
2022/03/25 09:58:19;;;;;;;14.05;9.20;;;22.60;33.00;;;;;;2233322;56;21030;-67
2022/03/25 10:04:42;;;;;;;19.02;10.05;;;22.60;32.90;;;;;;2288384;55;21000;-66
2022/03/25 10:07:30;;;;;;;15.57;9.50;;;22.60;32.60;;;;;;2260514;56;20985;-66
2022/03/25 10:10:16;;;;;;;14.38;8.48;;;22.60;32.50;;;;;;2253688;55;20987;-68
2022/03/25 10:12:44;;;;;;;15.88;9.48;;;22.50;32.60;;;;;;2239566;57;20944;-65
2022/03/25 10:15:21;;;;;;;17.52;10.77;;;22.60;33.10;;;;;;2258659;57;21037;-66
2022/03/25 10:18:05;;;;;;;14.85;9.98;;;22.60;32.20;;;;;;2471114;55;21004;-66
2022/03/25 10:20:47;;;;;;;13.40;9.63;;;22.50;31.90;;;;;;2224232;56;21022;-66
2022/03/25 10:23:22;;;;;;;17.70;11.02;;;22.50;31.70;;;;;;2258741;55;20949;-66
2022/03/25 10:25:56;;;;;;;19.42;10.68;;;22.40;31.50;;;;;;2254327;57;20964;-66
2022/03/25 10:28:46;;;;;;;14.05;9.25;;;22.30;31.40;;;;;;2252768;56;21065;-68
2022/03/25 10:34:03;;;;;;;18.27;11.68;;;22.00;31.30;;;;;;2340877;55;20964;-66
2022/03/25 10:36:30;;;;;;;17.70;11.57;;;22.00;31.50;;;;;;2237641;56;20951;-69
2022/03/25 10:39:00;;;;;;;17.02;11.10;;;21.90;31.40;;;;;;2255727;56;21367;-66
2022/03/25 10:41:50;;;;;;;19.08;11.55;;;21.90;31.30;;;;;;2260027;56;20944;-68
2022/03/25 10:44:17;;;;;;;18.70;11.95;;;21.80;30.60;;;;;;2259600;56;20954;-67
2022/03/25 10:46:45;;;;;;;18.15;11.32;;;21.80;30.90;;;;;;2259992;56;20956;-67
2022/03/25 10:49:23;;;;;;;21.05;12.88;;;21.70;31.00;;;;;;2394991;55;20957;-66
2022/03/25 10:51:58;;;;;;;22.55;12.35;;;21.70;30.50;;;;;;2261571;55;21406;-67
2022/03/25 10:54:26;;;;;;;24.58;13.45;;;21.70;30.90;;;;;;2374079;55;21000;-67
2022/03/25 10:56:57;;;;;;;21.02;12.65;;;21.70;31.00;;;;;;2255442;56;20960;-66
2022/03/25 10:59:34;;;;;;;20.60;13.25;;;21.70;30.90;;;;;;2259871;56;20984;-66
2022/03/25 11:02:07;;;;;;;20.67;13.20;;;21.80;31.00;;;;;;2317226;55;21005;-66
2022/03/25 11:04:34;;;;;;;21.75;13.55;;;21.80;31.00;;;;;;2311633;55;21029;-66
2022/03/25 11:07:04;;;;;;;22.70;13.55;;;21.80;31.00;;;;;;2259911;56;21040;-65
2022/03/25 11:10:17;;;;;;;22.10;13.80;;;21.90;30.90;;;;;;2318898;55;21094;-65
2022/03/25 11:12:48;;;;;;;24.58;14.65;;;21.90;31.00;;;;;;2257741;56;21140;-66
2022/03/25 11:15:22;;;;;;;20.65;13.38;;;22.00;30.60;;;;;;2259581;56;21017;-66
2022/03/25 11:17:50;;;;;;;22.48;13.88;;;22.00;30.70;;;;;;2478525;55;21176;-66
2022/03/25 11:20:26;;;;;;;20.90;13.90;;;22.00;30.60;;;;;;2254511;56;20988;-66
2022/03/25 11:26:08;;;;;;;24.63;15.10;;;22.00;30.20;;;;;;2255084;56;21059;-66
2022/03/25 11:28:34;;;;;;;20.40;12.70;;;22.10;30.70;;;;;;2261129;56;21024;-67
2022/03/25 11:31:04;;;;;;;23.27;13.50;;;22.20;30.90;;;;;;2260012;56;21056;-69
2022/03/25 11:33:30;;;;;;;21.92;14.63;;;22.30;31.00;;;;;;2257594;56;20957;-66
2022/03/25 11:36:15;;;;;;;23.73;12.45;;;22.40;30.80;;;;;;2258333;56;21524;-66
2022/03/25 11:42:51;;;;;;;20.20;12.15;;;22.60;30.80;;;;;;2244809;55;21915;-66
2022/03/25 11:46:11;;;;;;;21.30;13.45;;;22.80;30.60;;;;;;2441128;55;21048;-65
2022/03/25 11:48:38;;;;;;;24.73;14.87;;;22.90;30.50;;;;;;2259401;56;20952;-67
2022/03/25 11:54:41;;;;;;;24.83;13.93;;;23.10;29.90;;;;;;2259282;55;20969;-65
2022/03/25 11:57:23;;;;;;;22.48;14.90;;;23.10;30.00;;;;;;2258007;56;20913;-66
2022/03/25 11:59:50;;;;;;;;;;;23.10;30.00;;;;;;2237714;57;20960;-66
2022/03/25 12:02:36;;;;;;;21.80;14.10;;;23.20;30.40;;;;;;2263055;56;20305;-66
2022/03/25 12:05:22;;;;;;;24.02;14.63;;;23.20;29.90;;;;;;2262444;56;20971;-66
2022/03/25 12:09:59;;;;;;;23.90;14.98;;;23.20;30.50;;;;;;2260334;56;21060;-66
2022/03/25 12:12:51;;;;;;;22.70;13.93;;;23.30;29.70;;;;;;2289914;55;21550;-66
2022/03/25 12:15:17;;;;;;;19.98;12.27;;;23.40;29.40;;;;;;2259686;56;20969;-67
2022/03/25 12:17:44;;;;;;;22.30;13.68;;;23.40;29.80;;;;;;2250040;55;20988;-65
2022/03/25 12:20:10;;;;;;;24.52;15.27;;;23.50;29.70;;;;;;2243865;56;20970;-66
2022/03/25 12:22:37;;;;;;;20.73;14.18;;;23.50;29.40;;;;;;2255709;56;21040;-66
2022/03/25 12:29:02;;;;;;;20.20;10.93;;;23.60;29.10;;;;;;2318478;55;21024;-66
2022/03/25 12:31:32;;;;;;;21.48;13.05;;;23.80;29.50;;;;;;2286333;56;21033;-69
2022/03/25 12:34:05;;;;;;;20.15;13.23;;;23.90;29.50;;;;;;2366603;55;21290;-67
2022/03/25 12:37:10;;;;;;;21.48;14.07;;;24.10;29.40;;;;;;2285405;56;21055;-67
2022/03/25 12:39:38;;;;;;;23.12;13.88;;;24.20;29.10;;;;;;2277874;56;21023;-67
2022/03/25 12:42:12;;;;;;;19.92;13.82;;;24.20;28.60;;;;;;2261781;55;21796;-67
2022/03/25 12:44:41;;;;;;;21.80;13.75;;;24.30;28.20;;;;;;2288230;56;20970;-69
2022/03/25 12:47:15;;;;;;;22.98;15.20;;;24.30;28.10;;;;;;2291156;55;21669;-67
2022/03/25 12:49:42;;;;;;;23.60;15.38;;;24.40;28.00;;;;;;2443548;55;21585;-67
2022/03/25 12:52:09;;;;;;;21.20;13.10;;;24.40;27.80;;;;;;2289229;55;20938;-66
2022/03/25 12:54:40;;;;;;;20.25;13.20;;;24.30;27.60;;;;;;2290676;55;20974;-66
2022/03/25 12:57:08;;;;;;;17.60;12.45;;;24.30;27.80;;;;;;2289440;55;21503;-67
2022/03/25 12:59:56;;;;;;;20.95;12.98;;;24.40;27.70;;;;;;2468428;55;21433;-67
2022/03/25 13:02:34;;;;;;;17.85;11.77;;;24.50;27.20;;;;;;2261909;56;21022;-67
2022/03/25 13:05:10;;;;;;;15.65;10.73;;;24.50;27.20;;;;;;2286109;55;21064;-67
2022/03/25 13:07:45;;;;;;;17.17;11.43;;;24.60;27.30;;;;;;2273147;56;20978;-67
2022/03/25 13:10:13;;;;;;;17.35;12.02;;;24.70;27.60;;;;;;2249315;56;20985;-69
2022/03/25 13:13:38;;;;;;;19.65;13.27;;;24.80;27.50;;;;;;2287318;56;21011;-66
2022/03/25 13:16:06;;;;;;;19.37;12.37;;;24.90;26.80;;;;;;2288799;55;20938;-66
2022/03/25 13:18:37;;;;;;;20.98;13.15;;;24.90;26.90;;;;;;2381844;55;20993;-67
2022/03/25 13:21:15;;;;;;;20.85;13.23;;;24.90;26.70;;;;;;2321690;55;20969;-67
2022/03/25 13:23:42;;;;;;;19.98;12.40;;;24.90;26.60;;;;;;2289671;56;20962;-68
2022/03/25 13:26:09;;;;;;;19.67;11.63;;;24.90;26.50;;;;;;2266748;56;20929;-67
2022/03/25 13:28:40;;;;;;;19.10;12.00;;;24.90;26.40;;;;;;2302234;55;20949;-67
2022/03/25 13:31:11;;;;;;;16.58;11.25;;;24.90;26.50;;;;;;2289838;56;20949;-67
2022/03/25 13:33:54;;;;;;;17.23;11.40;;;25.00;26.50;;;;;;2266402;56;21773;-67
2022/03/25 13:36:28;;;;;;;17.37;11.07;;;25.00;26.40;;;;;;2285248;56;21010;-69
2022/03/25 13:38:55;;;;;;;18.27;12.32;;;25.10;26.10;;;;;;2290088;55;20989;-66
2022/03/25 13:41:23;;;;;;;17.00;11.60;;;25.10;25.60;;;;;;2289477;55;21234;-66
2022/03/25 13:43:54;;;;;;;19.87;13.50;;;25.00;25.40;;;;;;2268451;56;21843;-69
2022/03/25 13:46:29;;;;;;;21.40;14.00;;;25.00;25.20;;;;;;2344560;55;21199;-67
2022/03/25 13:49:00;;;;;;;18.23;12.73;;;25.00;25.10;;;;;;2389014;55;20982;-67
2022/03/25 13:51:32;;;;;;;21.27;12.68;;;24.90;25.30;;;;;;2291404;55;21085;-68
2022/03/25 13:54:06;;;;;;;19.73;13.20;;;24.80;25.30;;;;;;2259020;56;20964;-67
2022/03/25 13:56:35;;;;;;;17.85;12.05;;;24.80;25.40;;;;;;2259816;56;21060;-67
2022/03/25 13:59:02;;;;;;;17.37;11.52;;;24.90;25.50;;;;;;2271401;55;21574;-67
2022/03/25 14:02:02;;;;;;;19.02;12.30;;;24.80;25.50;;;;;;2259571;56;21485;-66
2022/03/25 14:04:29;;;;;;;19.52;12.90;;;24.90;25.10;;;;;;2259165;56;21011;-66
2022/03/25 14:07:01;;;;;;;20.20;14.15;;;24.90;25.00;;;;;;2210235;57;3038619;-68
2022/03/25 14:09:32;;;;;;;18.60;12.30;;;24.80;24.80;;;;;;2258774;56;21037;-66
2022/03/25 14:12:18;;;;;;;16.65;11.25;;;24.80;24.90;;;;;;2304998;55;21020;-67